createdAt,value
2019-05-28T00:00:33.336Z,5.30
2019-05-28T00:03:01.744Z,4.87
2019-05-28T00:05:30.181Z,5.00
2019-05-28T00:07:58.619Z,4.63
2019-05-28T00:10:27.041Z,5.10
2019-05-28T00:12:55.433Z,5.00
2019-05-28T00:15:23.872Z,5.50
2019-05-28T00:17:52.267Z,5.10
2019-05-28T00:20:20.972Z,6.20
2019-05-28T00:22:49.404Z,5.20
2019-05-28T00:25:17.817Z,5.00
2019-05-28T00:27:46.224Z,5.75
2019-05-28T00:30:20.277Z,5.27
2019-05-28T00:32:45.515Z,5.08
2019-05-28T00:35:14.557Z,5.63
2019-05-28T00:37:42.990Z,5.58
2019-05-28T00:40:11.756Z,5.60
2019-05-28T00:42:40.227Z,5.50
2019-05-28T00:45:09.674Z,6.30
2019-05-28T00:47:38.084Z,6.23
2019-05-28T00:50:10.358Z,6.67
2019-05-28T00:52:38.872Z,5.87
2019-05-28T00:55:08.370Z,5.80
2019-05-28T00:57:38.563Z,5.80
2019-05-28T01:00:07.805Z,5.90
2019-05-28T01:02:36.474Z,6.83
2019-05-28T01:05:06.360Z,5.83
2019-05-28T01:07:34.818Z,6.03
2019-05-28T01:10:04.811Z,6.33
2019-05-28T01:12:33.235Z,6.37
2019-05-28T01:15:01.650Z,7.07
2019-05-28T01:17:30.068Z,6.50
2019-05-28T01:19:58.472Z,6.50
2019-05-28T01:22:26.973Z,6.70
2019-05-28T01:24:55.384Z,5.90
2019-05-28T01:27:23.800Z,6.22
2019-05-28T01:29:52.229Z,6.73
2019-05-28T01:32:20.617Z,5.90
2019-05-28T01:34:49.035Z,6.47
2019-05-28T01:37:17.468Z,6.97
2019-05-28T01:39:45.866Z,6.73
2019-05-28T01:42:14.285Z,7.10
2019-05-28T01:44:42.717Z,7.03
2019-05-28T01:47:11.129Z,6.40
2019-05-28T01:49:39.536Z,6.97
2019-05-28T01:52:07.956Z,6.43
2019-05-28T01:54:36.941Z,6.70
2019-05-28T01:57:05.348Z,7.43
2019-05-28T01:59:33.751Z,8.13
2019-05-28T02:02:02.213Z,7.60
2019-05-28T02:04:30.609Z,7.53
2019-05-28T02:06:59.027Z,9.27
2019-05-28T02:09:27.452Z,7.43
2019-05-28T02:11:55.857Z,6.60
2019-05-28T02:14:24.271Z,7.00
2019-05-28T02:16:52.707Z,7.30
2019-05-28T02:19:21.135Z,7.77
2019-05-28T02:21:49.536Z,6.53
2019-05-28T02:24:17.992Z,6.45
2019-05-28T02:26:46.388Z,6.47
2019-05-28T02:29:14.840Z,6.20
2019-05-28T02:31:43.238Z,5.75
2019-05-28T02:34:11.653Z,6.40
2019-05-28T02:36:40.052Z,6.87
2019-05-28T02:39:09.107Z,6.80
2019-05-28T02:41:37.569Z,6.80
2019-05-28T02:44:06.068Z,7.17
2019-05-28T02:46:34.500Z,7.43
2019-05-28T02:49:02.912Z,6.50
2019-05-28T02:51:31.871Z,6.20
2019-05-28T02:54:00.564Z,6.70
2019-05-28T02:56:31.897Z,7.57
2019-05-28T02:59:01.912Z,7.67
2019-05-28T03:01:43.471Z,6.97
2019-05-28T03:04:03.864Z,6.43
2019-05-28T03:06:34.200Z,6.90
2019-05-28T03:09:05.086Z,7.23
2019-05-28T03:11:33.508Z,6.97
2019-05-28T03:14:01.925Z,7.80
2019-05-28T03:16:33.420Z,6.37
2019-05-28T03:19:03.208Z,6.80
2019-05-28T03:21:35.036Z,7.07
2019-05-28T03:24:04.966Z,6.80
2019-05-28T03:26:33.370Z,7.13
2019-05-28T03:29:01.768Z,8.50
2019-05-28T03:31:30.249Z,7.40
2019-05-28T03:33:58.742Z,8.03
2019-05-28T03:36:29.356Z,6.33
2019-05-28T03:38:59.683Z,6.17
2019-05-28T03:41:28.058Z,6.93
2019-05-28T03:43:56.506Z,6.87
2019-05-28T03:46:24.916Z,7.50
2019-05-28T03:48:53.324Z,7.17
2019-05-28T03:51:21.756Z,7.17
2019-05-28T03:53:50.187Z,6.67
2019-05-28T03:56:18.580Z,6.40
2019-05-28T03:58:47.021Z,7.10
2019-05-28T04:01:15.502Z,6.50
2019-05-28T04:03:44.216Z,7.00
2019-05-28T04:06:12.804Z,7.22
2019-05-28T04:08:41.571Z,8.37
2019-05-28T04:11:10.020Z,9.10
2019-05-28T04:13:38.498Z,8.90
2019-05-28T04:16:06.919Z,8.10
2019-05-28T04:18:35.497Z,7.93
2019-05-28T04:21:04.197Z,9.40
2019-05-28T04:23:32.613Z,8.80
2019-05-28T04:26:01.063Z,9.07
2019-05-28T04:28:29.501Z,8.37
2019-05-28T04:30:57.996Z,8.10
2019-05-28T04:33:26.412Z,9.03
2019-05-28T04:35:54.854Z,7.90
2019-05-28T04:38:23.287Z,7.90
2019-05-28T04:40:51.821Z,7.90
2019-05-28T04:43:20.276Z,8.08
2019-05-28T04:45:48.684Z,9.20
2019-05-28T04:48:17.170Z,9.58
2019-05-28T04:50:45.596Z,8.77
2019-05-28T04:53:14.055Z,8.07
2019-05-28T04:55:42.477Z,7.80
2019-05-28T04:58:10.921Z,8.28
2019-05-28T05:00:39.351Z,8.73
2019-05-28T05:03:07.793Z,9.47
2019-05-28T05:05:36.207Z,9.00
2019-05-28T05:08:04.693Z,9.60
2019-05-28T05:10:33.134Z,9.07
2019-05-28T05:13:01.544Z,8.93
2019-05-28T05:15:29.966Z,8.97
2019-05-28T05:17:58.365Z,8.43
2019-05-28T05:20:26.819Z,8.00
2019-05-28T05:22:55.329Z,7.73
2019-05-28T05:25:23.812Z,7.33
2019-05-28T05:27:52.250Z,7.40
2019-05-28T05:30:20.899Z,7.43
2019-05-28T05:32:49.415Z,7.07
2019-05-28T05:37:49.090Z,7.60
2019-05-28T05:40:18.259Z,8.67
2019-05-28T05:42:46.834Z,8.00
2019-05-28T05:45:15.595Z,8.60
2019-05-28T05:47:44.126Z,7.87
2019-05-28T05:50:13.203Z,7.30
2019-05-28T05:52:41.626Z,7.73
2019-05-28T05:55:10.580Z,8.00
2019-05-28T05:57:39.603Z,8.75
2019-05-28T06:00:11.557Z,8.53
2019-05-28T06:02:39.707Z,9.10
2019-05-28T06:05:08.488Z,8.00
2019-05-28T06:07:36.923Z,8.20
2019-05-28T06:10:07.099Z,7.40
2019-05-28T06:12:35.517Z,7.27
2019-05-28T06:15:05.350Z,7.63
2019-05-28T06:17:33.768Z,8.00
2019-05-28T06:20:02.172Z,7.00
2019-05-28T06:22:30.626Z,6.43
2019-05-28T06:24:59.101Z,7.57
2019-05-28T06:27:27.541Z,6.62
2019-05-28T06:29:55.943Z,6.70
2019-05-28T06:32:24.385Z,6.60
2019-05-28T06:34:52.800Z,6.33
2019-05-28T06:37:21.252Z,6.72
2019-05-28T06:39:49.691Z,6.13
2019-05-28T06:42:18.122Z,5.77
2019-05-28T06:44:46.555Z,6.97
2019-05-28T06:47:15.039Z,5.90
2019-05-28T06:49:43.512Z,6.77
2019-05-28T06:52:12.054Z,5.57
2019-05-28T06:54:40.499Z,5.27
2019-05-28T06:57:22.220Z,5.90
2019-05-28T06:59:39.050Z,4.90
2019-05-28T07:02:08.519Z,5.57
2019-05-28T07:04:36.936Z,5.60
2019-05-28T07:07:05.352Z,5.90
2019-05-28T07:09:33.832Z,5.90
2019-05-28T07:12:02.312Z,6.97
2019-05-28T07:14:30.958Z,6.50
2019-05-28T07:16:59.681Z,6.63
2019-05-28T07:19:28.075Z,6.70
2019-05-28T07:21:56.577Z,6.50
2019-05-28T07:24:25.010Z,7.15
2019-05-28T07:26:53.407Z,7.30
2019-05-28T07:29:21.834Z,6.73
2019-05-28T07:31:50.259Z,8.00
2019-05-28T07:34:30.344Z,7.50
2019-05-28T07:36:48.834Z,7.33
2019-05-28T07:39:17.244Z,7.97
2019-05-28T07:41:45.650Z,8.20
2019-05-28T07:44:14.073Z,8.20
2019-05-28T07:46:42.513Z,7.73
2019-05-28T07:49:10.944Z,8.47
2019-05-28T07:51:39.349Z,8.27
2019-05-28T07:54:07.784Z,8.40
2019-05-28T07:56:36.226Z,8.33
2019-05-28T07:59:04.707Z,8.73
2019-05-28T08:01:33.203Z,8.13
2019-05-28T08:04:01.637Z,8.47
2019-05-28T08:06:30.055Z,8.80
2019-05-28T08:08:58.550Z,9.03
2019-05-28T08:11:26.963Z,7.67
2019-05-28T08:13:55.436Z,10.13
2019-05-28T08:16:24.412Z,9.43
2019-05-28T08:18:53.075Z,8.90
2019-05-28T08:21:21.493Z,9.18
2019-05-28T08:23:49.966Z,8.20
2019-05-28T08:26:18.446Z,8.63
2019-05-28T08:28:46.955Z,8.70
2019-05-28T08:31:20.723Z,9.17
2019-05-28T08:33:45.614Z,10.30
2019-05-28T08:36:14.307Z,8.50
2019-05-28T08:38:42.755Z,8.80
2019-05-28T08:41:11.169Z,7.90
2019-05-28T08:43:39.610Z,7.60
2019-05-28T08:46:08.050Z,7.20
2019-05-28T08:48:36.491Z,6.97
2019-05-28T08:51:04.893Z,6.30
2019-05-28T08:53:33.357Z,6.10
2019-05-28T08:56:01.785Z,6.20
2019-05-28T08:58:30.374Z,5.73
2019-05-28T09:00:58.809Z,5.83
2019-05-28T09:03:27.213Z,5.03
2019-05-28T09:05:55.660Z,5.30
2019-05-28T09:08:38.795Z,5.97
2019-05-28T09:10:54.262Z,6.20
2019-05-28T09:13:22.698Z,4.80
2019-05-28T09:15:51.117Z,5.50
2019-05-28T09:18:19.523Z,6.60
2019-05-28T09:20:48.004Z,7.10
2019-05-28T09:23:16.506Z,7.50
2019-05-28T09:25:44.900Z,6.23
2019-05-28T09:28:28.366Z,5.03
2019-05-28T09:30:43.521Z,5.37
2019-05-28T09:33:12.028Z,5.83
2019-05-28T09:35:44.777Z,7.33
2019-05-28T09:38:12.192Z,8.10
2019-05-28T09:40:49.943Z,8.90
2019-05-28T09:43:11.792Z,11.53
2019-05-28T09:45:40.553Z,9.23
2019-05-28T09:48:08.980Z,10.40
2019-05-28T09:50:37.392Z,10.03
2019-05-28T09:53:05.897Z,9.83
2019-05-28T09:55:34.296Z,9.63
2019-05-28T09:58:02.817Z,10.20
2019-05-28T10:00:34.010Z,11.27
2019-05-28T10:03:02.435Z,13.57
2019-05-28T10:05:30.929Z,12.67
2019-05-28T10:07:59.408Z,13.13
2019-05-28T10:10:27.863Z,9.10
2019-05-28T10:12:56.275Z,9.20
2019-05-28T10:15:24.878Z,8.67
2019-05-28T10:17:53.308Z,8.90
2019-05-28T10:20:22.669Z,7.67
2019-05-28T10:22:51.111Z,7.80
2019-05-28T10:25:20.606Z,7.13
2019-05-28T10:28:00.436Z,6.20
2019-05-28T10:30:19.763Z,6.43
2019-05-28T10:32:48.186Z,6.40
2019-05-28T10:35:17.343Z,6.30
2019-05-28T10:37:45.749Z,6.10
2019-05-28T10:40:14.621Z,4.60
2019-05-28T10:42:43.016Z,5.40
2019-05-28T10:45:13.302Z,6.50
2019-05-28T10:47:42.437Z,4.50
2019-05-28T10:50:12.823Z,5.27
2019-05-28T10:52:41.254Z,5.23
2019-05-28T10:55:09.816Z,4.73
2019-05-28T10:57:38.248Z,5.17
2019-05-28T11:00:08.342Z,5.00
2019-05-28T11:02:36.757Z,4.83
2019-05-28T11:05:08.352Z,4.40
2019-05-28T11:07:36.852Z,4.27
2019-05-28T11:10:23.293Z,3.07
2019-05-28T11:12:40.701Z,2.90
2019-05-28T11:15:10.616Z,4.77
2019-05-28T11:17:39.296Z,6.60
2019-05-28T11:20:08.579Z,5.87
2019-05-28T11:22:37.048Z,4.90
2019-05-28T11:25:06.811Z,4.23
2019-05-28T11:27:35.290Z,4.00
2019-05-28T11:30:05.223Z,2.83
2019-05-28T11:32:33.699Z,2.77
2019-05-28T11:35:02.197Z,2.50
2019-05-28T11:37:30.607Z,2.27
2019-05-28T11:39:59.337Z,1.87
2019-05-28T11:42:27.809Z,1.85
2019-05-28T11:44:56.335Z,2.10
2019-05-28T11:47:24.800Z,1.80
2019-05-28T11:49:53.202Z,1.90
2019-05-28T11:52:21.642Z,1.97
2019-05-28T11:54:50.040Z,1.60
2019-05-28T11:57:18.555Z,1.70
2019-05-28T11:59:46.966Z,1.27
2019-05-28T12:02:15.381Z,1.60
2019-05-28T12:04:43.818Z,1.20
2019-05-28T12:07:25.345Z,1.17
2019-05-28T12:09:43.290Z,1.10
2019-05-28T12:12:11.668Z,0.90
2019-05-28T12:14:46.229Z,1.30
2019-05-28T12:17:18.646Z,1.50
2019-05-28T12:19:46.347Z,1.30
2019-05-28T12:22:14.813Z,1.27
2019-05-28T12:24:43.533Z,1.40
2019-05-28T12:27:11.990Z,1.10
2019-05-28T12:29:51.496Z,1.13
2019-05-28T12:32:11.646Z,1.20
2019-05-28T12:34:40.371Z,1.10
2019-05-28T12:37:08.828Z,1.20
2019-05-28T12:39:37.431Z,1.33
2019-05-28T12:42:07.385Z,1.57
2019-05-28T12:44:42.142Z,1.60
2019-05-28T12:47:06.162Z,1.87
2019-05-28T12:49:34.548Z,1.60
2019-05-28T12:52:03.002Z,1.43
2019-05-28T12:54:31.389Z,1.47
2019-05-28T12:56:59.798Z,1.70
2019-05-28T12:59:28.281Z,1.30
2019-05-28T13:01:56.626Z,1.63
2019-05-28T13:04:25.133Z,1.50
2019-05-28T13:06:53.541Z,1.37
2019-05-28T13:09:21.949Z,1.80
2019-05-28T13:11:50.372Z,1.57
2019-05-28T13:14:18.812Z,1.43
2019-05-28T13:16:47.442Z,1.50
2019-05-28T13:19:15.898Z,1.37
2019-05-28T13:21:44.307Z,1.70
2019-05-28T13:24:12.698Z,1.93
2019-05-28T13:26:41.122Z,1.97
2019-05-28T13:29:09.558Z,1.70
2019-05-28T13:31:38.030Z,1.83
2019-05-28T13:34:06.485Z,1.90
2019-05-28T13:36:35.279Z,2.07
2019-05-28T13:39:05.207Z,1.50
2019-05-28T13:41:33.625Z,1.87
2019-05-28T13:44:02.054Z,1.63
2019-05-28T13:46:30.546Z,1.43
2019-05-28T13:48:58.959Z,1.87
2019-05-28T13:51:27.365Z,1.90
2019-05-28T13:53:55.837Z,1.83
2019-05-28T13:56:24.299Z,2.20
2019-05-28T13:58:52.728Z,1.67
2019-05-28T14:01:24.900Z,2.10
2019-05-28T14:03:51.297Z,1.90
2019-05-28T14:06:19.731Z,2.10
2019-05-28T14:08:48.185Z,2.50
2019-05-28T14:11:16.608Z,2.47
2019-05-28T14:13:45.031Z,2.37
2019-05-28T14:16:13.437Z,2.00
2019-05-28T14:18:41.865Z,2.30
2019-05-28T14:21:10.369Z,2.37
2019-05-28T14:23:38.808Z,2.87
2019-05-28T14:26:07.181Z,1.60
2019-05-28T14:28:35.650Z,1.77
2019-05-28T14:31:04.169Z,1.77
2019-05-28T14:33:32.592Z,1.90
2019-05-28T14:36:01.034Z,1.70
2019-05-28T14:38:29.481Z,1.70
2019-05-28T14:40:58.126Z,1.80
2019-05-28T14:43:26.801Z,1.77
2019-05-28T14:45:55.355Z,1.97
2019-05-28T14:48:23.848Z,1.73
2019-05-28T14:50:52.338Z,1.93
2019-05-28T14:53:20.768Z,2.20
2019-05-28T14:55:49.261Z,2.60
2019-05-28T14:58:17.744Z,2.50
2019-05-28T15:00:46.228Z,2.07
2019-05-28T15:03:15.023Z,1.97
2019-05-28T15:05:43.428Z,2.30
2019-05-28T15:08:11.852Z,2.50
2019-05-28T15:10:40.324Z,1.87
2019-05-28T15:13:08.721Z,1.70
2019-05-28T15:15:37.799Z,1.70
2019-05-28T15:18:06.267Z,2.00
2019-05-28T15:20:34.638Z,1.63
2019-05-28T15:23:03.051Z,2.00
2019-05-28T15:25:31.468Z,2.30
2019-05-28T15:27:59.882Z,2.90
2019-05-28T15:30:28.442Z,2.20
2019-05-28T15:32:56.851Z,2.10
2019-05-28T15:35:25.314Z,2.00
2019-05-28T15:37:53.721Z,2.92
2019-05-28T15:40:22.239Z,3.27
2019-05-28T15:43:04.939Z,2.90
2019-05-28T15:45:20.781Z,4.10
2019-05-28T15:47:49.207Z,4.50
2019-05-28T15:50:18.450Z,4.40
2019-05-28T15:52:46.957Z,5.40
2019-05-28T15:55:15.612Z,6.80
2019-05-28T15:57:44.074Z,7.00
2019-05-28T16:00:21.408Z,8.07
2019-05-28T16:02:49.824Z,7.40
2019-05-28T16:05:18.389Z,8.00
2019-05-28T16:07:46.796Z,7.13
2019-05-28T16:10:16.128Z,6.58
2019-05-28T16:12:44.571Z,5.47
2019-05-28T16:15:13.514Z,7.20
2019-05-28T16:17:41.921Z,5.03
2019-05-28T16:20:12.000Z,5.60
2019-05-28T16:22:40.454Z,6.03
2019-05-28T16:25:09.938Z,5.73
2019-05-28T16:27:38.371Z,6.03
2019-05-28T16:30:08.993Z,6.00
2019-05-28T16:32:37.661Z,5.80
2019-05-28T16:35:08.244Z,7.03
2019-05-28T16:37:36.657Z,6.90
2019-05-28T16:40:15.582Z,7.60
2019-05-28T16:42:39.061Z,7.40
2019-05-28T16:45:08.492Z,7.50
2019-05-28T16:47:36.908Z,7.93
2019-05-28T16:50:09.159Z,7.17
2019-05-28T16:52:37.609Z,7.20
2019-05-28T16:55:06.488Z,8.07
2019-05-28T16:57:34.982Z,7.70
2019-05-28T17:00:05.137Z,6.70
2019-05-28T17:02:33.548Z,5.85
2019-05-28T17:05:01.947Z,6.83
2019-05-28T17:07:30.393Z,5.27
2019-05-28T17:09:58.799Z,5.33
2019-05-28T17:12:27.206Z,4.58
2019-05-28T17:14:55.622Z,5.20
2019-05-28T17:17:24.057Z,5.47
2019-05-28T17:19:52.465Z,5.23
2019-05-28T17:22:20.872Z,6.00
2019-05-28T17:24:49.289Z,5.57
2019-05-28T17:27:17.730Z,6.30
2019-05-28T17:29:50.464Z,7.20
2019-05-28T17:32:16.736Z,5.63
2019-05-28T17:34:45.158Z,6.40
2019-05-28T17:37:13.572Z,7.10
2019-05-28T17:39:42.034Z,7.27
2019-05-28T17:42:10.435Z,7.33
2019-05-28T17:44:38.866Z,7.07
2019-05-28T17:47:07.369Z,6.37
2019-05-28T17:49:35.788Z,7.67
2019-05-28T17:52:04.290Z,7.25
2019-05-28T17:54:32.734Z,9.57
2019-05-28T17:57:01.167Z,8.70
2019-05-28T17:59:29.561Z,8.03
2019-05-28T18:01:58.012Z,5.97
2019-05-28T18:04:26.479Z,4.30
2019-05-28T18:06:54.895Z,4.62
2019-05-28T18:09:23.308Z,3.87
2019-05-28T18:11:51.761Z,4.03
2019-05-28T18:14:23.653Z,3.20
2019-05-28T18:16:50.354Z,3.10
2019-05-28T18:19:18.779Z,3.10
2019-05-28T18:21:47.292Z,2.60
2019-05-28T18:24:15.953Z,2.53
2019-05-28T18:26:44.593Z,2.63
2019-05-28T18:29:13.075Z,2.97
2019-05-28T18:31:41.473Z,2.23
2019-05-28T18:34:10.027Z,2.40
2019-05-28T18:36:38.465Z,2.63
2019-05-28T18:39:08.038Z,2.20
2019-05-28T18:41:36.730Z,2.10
2019-05-28T18:44:06.352Z,2.70
2019-05-28T18:46:34.751Z,2.67
2019-05-28T18:49:03.379Z,2.80
2019-05-28T18:51:31.803Z,2.30
2019-05-28T18:54:00.403Z,2.73
2019-05-28T18:56:28.968Z,2.85
2019-05-28T18:58:57.367Z,3.35
2019-05-28T19:01:26.010Z,3.70
2019-05-28T19:03:54.454Z,4.60
2019-05-28T19:06:22.885Z,3.90
2019-05-28T19:08:51.331Z,4.30
2019-05-28T19:11:20.083Z,4.53
2019-05-28T19:13:48.522Z,4.83
2019-05-28T19:16:17.743Z,4.92
2019-05-28T19:18:46.592Z,4.73
2019-05-28T19:21:15.153Z,5.77
2019-05-28T19:23:44.105Z,6.40
2019-05-28T19:26:12.588Z,5.10
2019-05-28T19:28:41.276Z,7.20
2019-05-28T19:31:09.809Z,7.37
2019-05-28T19:33:38.416Z,7.33
2019-05-28T19:36:07.520Z,7.27
2019-05-28T19:38:45.710Z,7.43
2019-05-28T19:41:06.795Z,7.87
2019-05-28T19:43:35.212Z,8.77
2019-05-28T19:46:03.975Z,8.30
2019-05-28T19:48:32.621Z,8.10
2019-05-28T19:51:01.104Z,7.73
2019-05-28T19:53:29.787Z,7.80
2019-05-28T19:55:58.274Z,7.72
2019-05-28T19:58:26.794Z,8.47
2019-05-28T20:00:55.218Z,7.87
2019-05-28T20:03:23.802Z,6.63
2019-05-28T20:05:55.056Z,7.93
2019-05-28T20:08:23.733Z,8.00
2019-05-28T20:10:52.260Z,7.03
2019-05-28T20:13:20.695Z,7.67
2019-05-28T20:15:49.255Z,7.07
2019-05-28T20:18:26.240Z,7.05
2019-05-28T20:20:48.335Z,7.70
2019-05-28T20:23:16.910Z,7.03
2019-05-28T20:25:47.565Z,7.53
2019-05-28T20:28:15.557Z,6.80
2019-05-28T20:30:44.288Z,6.70
2019-05-28T20:33:12.919Z,6.67
2019-05-28T20:35:41.354Z,6.20
2019-05-28T20:38:12.434Z,6.40
2019-05-28T20:40:40.054Z,6.20
2019-05-28T20:43:08.486Z,6.77
2019-05-28T20:45:37.121Z,6.87
2019-05-28T20:48:06.732Z,6.25
2019-05-28T20:50:35.360Z,7.40
2019-05-28T20:53:03.769Z,7.13
2019-05-28T20:55:32.321Z,5.87
2019-05-28T20:58:00.891Z,6.67
2019-05-28T21:00:29.388Z,6.33
2019-05-28T21:02:58.006Z,6.60
2019-05-28T21:05:26.467Z,5.90
2019-05-28T21:07:56.162Z,6.80
2019-05-28T21:10:24.768Z,6.33
2019-05-28T21:12:53.161Z,6.17
2019-05-28T21:15:21.802Z,6.20
2019-05-28T21:17:51.133Z,6.30
2019-05-28T21:20:19.765Z,5.47
2019-05-28T21:22:49.600Z,5.73
2019-05-28T21:25:18.801Z,6.03
2019-05-28T21:27:47.284Z,5.03
2019-05-28T21:30:16.730Z,5.47
2019-05-28T21:32:45.186Z,5.30
2019-05-28T21:35:13.844Z,5.17
2019-05-28T21:37:42.284Z,5.10
2019-05-28T21:40:11.355Z,6.30
2019-05-28T21:42:39.777Z,5.37
2019-05-28T21:45:08.731Z,6.00
2019-05-28T21:47:37.209Z,6.23
2019-05-28T21:50:08.235Z,5.70
2019-05-28T21:52:36.632Z,4.93
2019-05-28T21:55:08.332Z,5.60
2019-05-28T21:57:36.759Z,5.67
2019-05-28T22:00:12.409Z,5.00
2019-05-28T22:02:40.835Z,4.73
2019-05-28T22:05:09.764Z,4.77
2019-05-28T22:07:38.229Z,4.70
2019-05-28T22:10:08.592Z,5.13
2019-05-28T22:12:39.600Z,4.97
2019-05-28T22:15:08.376Z,4.40
2019-05-28T22:17:36.805Z,5.20
2019-05-28T22:20:08.777Z,5.20
2019-05-28T22:22:37.253Z,5.00
2019-05-28T22:25:08.860Z,4.60
2019-05-28T22:27:37.299Z,5.60
2019-05-28T22:30:08.059Z,4.73
2019-05-28T22:32:36.469Z,4.57
2019-05-28T22:35:06.464Z,5.40
2019-05-28T22:37:34.859Z,4.90
2019-05-28T22:40:04.045Z,5.10
2019-05-28T22:42:32.461Z,5.25
2019-05-28T22:45:00.918Z,4.60
2019-05-28T22:47:29.315Z,5.08
2019-05-28T22:50:13.891Z,5.40
2019-05-28T22:52:27.864Z,4.70
2019-05-28T22:54:56.275Z,5.20
2019-05-28T22:57:24.688Z,5.20
2019-05-28T22:59:53.106Z,5.50
2019-05-28T23:02:21.522Z,4.93
2019-05-28T23:04:49.926Z,4.87
2019-05-28T23:07:18.371Z,5.27
2019-05-28T23:09:46.800Z,4.87
2019-05-28T23:12:15.223Z,5.23
2019-05-28T23:14:43.619Z,5.00
2019-05-28T23:17:12.367Z,5.93
2019-05-28T23:19:40.769Z,5.70
2019-05-28T23:22:09.183Z,4.90
2019-05-28T23:24:37.609Z,4.90
2019-05-28T23:27:06.026Z,5.20
2019-05-28T23:29:34.472Z,5.20
2019-05-28T23:32:03.919Z,5.08
2019-05-28T23:34:32.567Z,5.03
2019-05-28T23:37:00.996Z,4.93
2019-05-28T23:39:29.412Z,5.30
2019-05-28T23:41:57.832Z,5.12
2019-05-28T23:44:26.283Z,5.23
2019-05-28T23:46:54.696Z,4.70
2019-05-28T23:49:23.104Z,5.40
2019-05-28T23:51:51.522Z,4.70
2019-05-28T23:54:20.298Z,5.15
2019-05-28T23:56:48.713Z,5.20
2019-05-28T23:59:18.048Z,5.70
